Metcalfe, Mississippi
Current Conditions -  °F | °C
As of 3:53 AM on Thursday 23 Oct 2014 (Local Time) from KGLH Reporting Station
Clear Clear  
Wind Chill: 43°   Ceiling: Unl
Heat Index: 45°   Visibility: 10mi
Dew Point: 43°   Wind: 5mph
Humidity: 93%   Direction: 360°N
Pressure: 30.14"   Gusts: NA
Location:  33.45°N, 91.01°W
Report Text: KGLH 230853Z AUTO 36004KT 10SM CLR 07/06 A3014 RMK AO2 SLP214 T00720061 56005
Loading
Personal Weather Stations






























Interactive Weather Map
Tropical Storm Tracking
New forecast layout! Learn more

10-Day Weather Forecast

Advertisements
Track Severe Weather on mobile